Time;durP1;ratioP1;P1;durP2;ratioP2;P2;SDS_P1;SDS_P2;PMS_P1;PMS_P2;Temp;Humidity;BMP_temperature;BMP_pressure;BME280_temperature;BME280_humidity;BME280_pressure;Samples;Min_cycle;Max_cycle;Signal;HPM_P1;HPM_P2
2022/12/08 00:00:52;;;;;;;5.20;0.98;;;1.80;99.90;;;;;;5074077;28;20045;-63
2022/12/08 00:03:17;;;;;;;5.68;1.08;;;1.80;99.90;;;;;;5077640;28;20043;-62
2022/12/08 00:11:13;;;;;;;7.13;1.08;;;1.90;99.90;;;;;;5083333;28;20040;-64
2022/12/08 00:13:39;;;;;;;6.50;1.27;;;2.00;99.90;;;;;;5091079;28;20054;-63
2022/12/08 00:16:05;;;;;;;2.92;0.90;;;2.00;99.90;;;;;;5084273;28;20372;-62
2022/12/08 00:18:31;;;;;;;3.45;0.95;;;1.90;99.90;;;;;;5097426;28;20046;-64
2022/12/08 00:20:57;;;;;;;4.65;1.10;;;1.90;99.90;;;;;;5080687;28;20631;-64
2022/12/08 00:23:23;;;;;;;3.38;0.95;;;2.00;99.90;;;;;;5081785;28;20232;-65
2022/12/08 00:25:48;;;;;;;2.83;1.00;;;1.90;99.90;;;;;;5100928;28;20032;-62
2022/12/08 00:28:15;;;;;;;6.10;1.00;;;1.90;99.90;;;;;;5094573;28;20036;-62
2022/12/08 00:30:41;;;;;;;2.92;1.10;;;2.00;99.90;;;;;;5097382;28;20036;-63
2022/12/08 00:33:07;;;;;;;7.07;1.30;;;1.90;99.90;;;;;;5086957;28;20095;-62
2022/12/08 00:35:33;;;;;;;4.32;1.50;;;2.00;99.90;;;;;;5087118;28;20036;-63
2022/12/08 00:37:58;;;;;;;10.77;2.28;;;1.80;99.90;;;;;;5103111;28;20044;-64
2022/12/08 00:40:24;;;;;;;7.10;1.20;;;1.80;99.90;;;;;;5110004;28;20513;-63
2022/12/08 00:42:49;;;;;;;3.35;1.30;;;1.90;99.90;;;;;;5104229;28;20375;-63
2022/12/08 00:45:15;;;;;;;5.18;1.17;;;1.90;99.90;;;;;;5108612;28;20529;-63
2022/12/08 00:47:40;;;;;;;6.10;1.30;;;1.90;99.90;;;;;;5089604;28;20866;-63
2022/12/08 00:50:07;;;;;;;2.05;1.05;;;1.80;99.90;;;;;;5094323;28;20483;-62
2022/12/08 00:52:32;;;;;;;3.30;1.30;;;1.90;99.90;;;;;;5112305;28;20042;-62
2022/12/08 00:54:58;;;;;;;3.78;1.35;;;2.00;99.90;;;;;;5108472;28;20036;-63
2022/12/08 00:57:23;;;;;;;5.35;1.33;;;2.00;99.90;;;;;;5107655;28;20036;-63
2022/12/08 00:59:49;;;;;;;8.50;1.80;;;2.10;99.90;;;;;;5089921;28;20047;-65
2022/12/08 01:02:14;;;;;;;9.30;1.70;;;2.00;99.90;;;;;;5085964;28;20484;-64
2022/12/08 01:04:40;;;;;;;4.30;1.42;;;2.20;99.90;;;;;;5080393;28;22142;-65
2022/12/08 01:07:06;;;;;;;9.77;1.58;;;2.10;99.90;;;;;;5085986;28;20055;-65
2022/12/08 01:09:32;;;;;;;9.82;1.90;;;2.10;99.90;;;;;;5080648;28;20024;-64
2022/12/08 01:11:57;;;;;;;12.60;1.88;;;2.30;99.90;;;;;;5089487;28;20041;-64
2022/12/08 01:14:23;;;;;;;6.80;2.13;;;2.30;99.90;;;;;;5092455;28;20494;-64
2022/12/08 01:16:48;;;;;;;13.65;2.30;;;2.40;99.90;;;;;;5083991;28;20040;-66
2022/12/08 01:19:15;;;;;;;6.82;1.77;;;2.30;99.90;;;;;;5083782;28;20481;-65
2022/12/08 01:21:42;;;;;;;3.97;1.98;;;2.30;99.90;;;;;;5083491;28;20094;-66
2022/12/08 01:24:16;;;;;;;7.95;1.90;;;2.30;99.90;;;;;;5089096;28;20064;-64
2022/12/08 01:26:42;;;;;;;12.13;4.00;;;2.50;99.90;;;;;;5078856;28;20035;-64
2022/12/08 01:29:08;;;;;;;6.85;1.80;;;2.50;99.90;;;;;;5071550;28;20036;-64
2022/12/08 01:31:34;;;;;;;5.90;1.63;;;2.30;99.90;;;;;;5105950;28;20533;-66
2022/12/08 01:33:59;;;;;;;3.42;1.40;;;2.00;99.90;;;;;;5062615;28;20032;-68
2022/12/08 01:36:27;;;;;;;6.97;1.90;;;2.10;99.90;;;;;;5089864;28;20047;-65
2022/12/08 01:38:56;;;;;;;6.05;1.58;;;1.90;99.90;;;;;;5091236;28;20062;-66
2022/12/08 01:41:24;;;;;;;6.03;2.45;;;2.30;99.90;;;;;;5106684;28;20084;-65
2022/12/08 01:43:55;;;;;;;5.07;1.63;;;2.30;99.90;;;;;;5091175;28;20071;-65
2022/12/08 01:46:22;;;;;;;3.03;1.30;;;2.00;99.90;;;;;;5070703;28;20051;-66
2022/12/08 01:48:49;;;;;;;5.22;1.85;;;2.10;99.90;;;;;;5091737;28;20413;-66
2022/12/08 01:51:14;;;;;;;7.90;2.08;;;2.40;99.90;;;;;;5088498;28;20067;-65
2022/12/08 01:53:40;;;;;;;6.25;2.00;;;2.00;99.90;;;;;;5106301;28;20094;-65
2022/12/08 01:56:13;;;;;;;4.32;1.58;;;2.40;99.90;;;;;;5082349;28;20039;-65
2022/12/08 01:58:44;;;;;;;5.40;1.70;;;2.30;99.90;;;;;;5092164;28;20055;-64
2022/12/08 02:01:10;;;;;;;3.28;1.70;;;2.40;99.90;;;;;;5088461;28;20035;-65
2022/12/08 02:03:38;;;;;;;5.55;1.77;;;1.90;99.90;;;;;;5090062;28;20044;-67
2022/12/08 02:06:05;;;;;;;3.72;1.40;;;2.20;99.90;;;;;;5081553;28;20778;-65
2022/12/08 02:08:31;;;;;;;4.80;1.75;;;2.40;99.90;;;;;;5086477;28;20043;-64
2022/12/08 02:10:57;;;;;;;9.68;2.10;;;2.00;99.90;;;;;;5066251;28;20028;-65
2022/12/08 02:13:23;;;;;;;4.15;2.15;;;2.20;99.90;;;;;;5109811;28;20104;-66
2022/12/08 02:16:16;;;;;;;4.40;2.28;;;2.10;99.90;;;;;;5086054;28;20052;-64
2022/12/08 02:19:14;;;;;;;3.20;1.70;;;2.40;99.90;;;;;;5082712;28;20059;-65
2022/12/08 02:21:55;;;;;;;3.78;1.73;;;2.40;99.90;;;;;;5082823;28;20073;-67
2022/12/08 02:24:39;;;;;;;6.82;1.95;;;2.10;99.90;;;;;;5079794;28;20040;-65
2022/12/08 02:27:28;;;;;;;8.90;1.65;;;2.40;99.90;;;;;;5083882;28;20036;-64
2022/12/08 02:30:06;;;;;;;4.15;1.92;;;1.90;99.90;;;;;;5084170;28;20118;-65
2022/12/08 02:33:05;;;;;;;5.45;1.80;;;2.40;99.90;;;;;;5104115;28;20118;-64
2022/12/08 02:35:44;;;;;;;4.37;1.57;;;2.40;99.90;;;;;;5102653;28;20039;-64
2022/12/08 02:38:40;;;;;;;5.70;1.90;;;1.80;99.90;;;;;;5068696;28;20398;-63
2022/12/08 02:41:27;;;;;;;4.30;1.63;;;2.40;99.90;;;;;;5042654;28;20480;-63
2022/12/08 02:44:18;;;;;;;5.68;1.63;;;1.80;99.90;;;;;;5103970;28;20048;-64
2022/12/08 02:46:53;;;;;;;3.40;1.60;;;2.10;99.90;;;;;;5097759;28;20047;-64
2022/12/08 02:49:18;;;;;;;2.53;1.20;;;1.80;99.90;;;;;;5092392;28;20036;-66
2022/12/08 02:51:44;;;;;;;2.80;1.20;;;2.10;99.90;;;;;;5081006;28;20035;-64
2022/12/08 02:54:10;;;;;;;3.83;1.10;;;2.00;99.90;;;;;;5091217;28;20050;-63
2022/12/08 02:56:54;;;;;;;2.15;1.10;;;2.20;99.90;;;;;;5088497;28;20051;-65
2022/12/08 02:59:41;;;;;;;2.75;0.95;;;2.10;99.90;;;;;;5074065;28;20066;-65
2022/12/08 03:02:28;;;;;;;3.33;0.88;;;2.30;99.90;;;;;;5091088;28;20035;-63
2022/12/08 03:05:09;;;;;;;3.35;0.73;;;2.30;99.90;;;;;;5086505;28;20432;-64
2022/12/08 03:08:12;;;;;;;1.13;0.70;;;1.80;99.90;;;;;;5098956;28;20043;-64
2022/12/08 03:10:51;;;;;;;2.97;1.08;;;2.00;99.90;;;;;;5030345;28;20087;-64
2022/12/08 03:13:25;;;;;;;2.22;0.80;;;1.70;99.90;;;;;;5069067;28;20071;-67
2022/12/08 03:15:52;;;;;;;2.10;1.00;;;1.70;99.90;;;;;;5072619;28;20051;-66
2022/12/08 03:18:22;;;;;;;2.55;0.85;;;2.00;99.90;;;;;;5078811;28;20037;-65
2022/12/08 03:20:48;;;;;;;5.68;1.05;;;2.00;99.90;;;;;;5097053;28;20408;-64
2022/12/08 03:23:16;;;;;;;3.13;1.10;;;1.90;99.90;;;;;;5083704;28;20780;-64
2022/12/08 03:25:56;;;;;;;4.55;1.30;;;2.20;99.90;;;;;;5079905;28;20032;-64
2022/12/08 03:28:22;;;;;;;3.13;1.17;;;1.90;99.90;;;;;;5082063;28;20384;-63
2022/12/08 03:30:50;;;;;;;4.18;1.27;;;2.30;99.90;;;;;;5077471;28;20123;-66
2022/12/08 03:33:31;;;;;;;5.88;1.30;;;2.50;99.90;;;;;;5072334;28;20094;-67
2022/12/08 03:35:59;;;;;;;4.65;1.30;;;2.40;99.90;;;;;;5088106;28;20127;-66
2022/12/08 03:38:25;;;;;;;4.97;1.33;;;2.20;99.90;;;;;;5078832;28;20040;-65
2022/12/08 03:43:51;;;;;;;4.38;1.30;;;2.30;99.90;;;;;;5069396;28;20036;-68
2022/12/08 03:46:18;;;;;;;3.13;1.10;;;1.90;99.90;;;;;;5079063;28;20373;-67
2022/12/08 03:48:44;;;;;;;5.28;1.50;;;2.00;99.90;;;;;;5084609;28;20043;-65
2022/12/08 03:51:09;;;;;;;3.42;1.40;;;2.50;99.90;;;;;;5080654;28;20042;-67
2022/12/08 03:53:35;;;;;;;2.75;1.10;;;2.20;99.90;;;;;;5076511;28;20445;-65
2022/12/08 03:56:04;;;;;;;3.72;1.13;;;2.40;99.90;;;;;;5067286;28;20040;-67
2022/12/08 03:58:29;;;;;;;4.30;1.15;;;2.60;99.90;;;;;;5078909;28;20055;-65
2022/12/08 04:00:55;;;;;;;1.95;0.90;;;2.10;99.90;;;;;;5084084;28;20041;-65
2022/12/08 04:03:20;;;;;;;2.53;0.85;;;1.90;99.90;;;;;;5059545;28;20037;-65
2022/12/08 04:05:46;;;;;;;2.80;0.90;;;2.40;99.90;;;;;;5075250;28;20028;-65
2022/12/08 04:08:11;;;;;;;3.05;0.90;;;1.90;99.90;;;;;;5089232;28;20101;-65
2022/12/08 04:10:37;;;;;;;1.63;1.08;;;2.40;99.90;;;;;;5083487;28;20048;-64
2022/12/08 04:13:02;;;;;;;1.38;0.70;;;1.90;99.90;;;;;;5088036;28;20060;-67
2022/12/08 04:15:28;;;;;;;1.48;0.70;;;1.80;99.90;;;;;;5091065;28;20146;-64
2022/12/08 04:17:53;;;;;;;2.97;0.80;;;1.90;99.90;;;;;;5092055;28;20434;-67
2022/12/08 04:20:19;;;;;;;2.28;0.70;;;1.70;99.90;;;;;;5091700;28;20510;-64
2022/12/08 04:22:45;;;;;;;2.55;0.80;;;1.80;99.90;;;;;;5084638;28;20032;-65
2022/12/08 04:25:10;;;;;;;1.75;0.88;;;1.70;99.90;;;;;;5086691;28;20089;-64
2022/12/08 04:27:36;;;;;;;6.05;0.88;;;2.30;99.90;;;;;;5090459;28;20115;-64
2022/12/08 04:30:01;;;;;;;1.17;0.88;;;1.90;99.90;;;;;;5086582;28;20532;-64
2022/12/08 04:32:27;;;;;;;0.90;0.75;;;1.90;99.90;;;;;;5090617;28;20100;-64
2022/12/08 04:34:52;;;;;;;2.22;0.90;;;2.10;99.90;;;;;;5080814;28;20039;-65
2022/12/08 04:37:18;;;;;;;2.58;0.80;;;2.00;99.90;;;;;;5085203;28;20035;-65
2022/12/08 04:39:43;;;;;;;1.77;0.77;;;1.60;99.90;;;;;;5088150;28;20127;-64
2022/12/08 04:42:09;;;;;;;4.10;0.95;;;2.10;99.90;;;;;;5069142;28;20102;-65
2022/12/08 04:44:34;;;;;;;1.50;1.10;;;1.90;99.90;;;;;;5082513;28;20632;-64
2022/12/08 04:47:00;;;;;;;2.22;1.10;;;2.10;99.90;;;;;;5081241;28;20504;-64
2022/12/08 04:49:25;;;;;;;1.70;0.60;;;1.90;99.90;;;;;;5081283;28;20623;-65
2022/12/08 04:51:51;;;;;;;1.92;0.80;;;1.70;99.90;;;;;;5097734;28;20048;-64
2022/12/08 04:54:17;;;;;;;1.27;0.80;;;2.10;99.90;;;;;;5079825;28;20045;-64
2022/12/08 04:56:42;;;;;;;2.45;0.90;;;2.10;99.90;;;;;;5083419;28;20468;-65
2022/12/08 04:59:08;;;;;;;3.30;0.85;;;1.80;99.90;;;;;;5076054;28;20044;-64
2022/12/08 05:01:33;;;;;;;3.97;0.82;;;2.00;99.90;;;;;;5082217;28;20476;-65
2022/12/08 05:03:59;;;;;;;1.48;1.00;;;1.80;99.90;;;;;;5077995;28;20115;-64
2022/12/08 05:06:24;;;;;;;2.08;0.80;;;2.30;99.90;;;;;;5079844;28;20048;-65
2022/12/08 05:08:50;;;;;;;0.65;0.63;;;2.00;99.90;;;;;;5081111;28;20056;-67
2022/12/08 05:11:16;;;;;;;2.03;0.80;;;1.90;99.90;;;;;;5076283;28;20039;-65
2022/12/08 05:13:41;;;;;;;2.35;0.95;;;2.10;99.90;;;;;;5087291;28;20435;-66
2022/12/08 05:16:10;;;;;;;2.55;0.70;;;2.40;99.90;;;;;;5086742;28;20048;-64
2022/12/08 05:18:36;;;;;;;1.90;0.75;;;1.90;99.90;;;;;;5081447;28;20040;-65
2022/12/08 05:21:04;;;;;;;2.00;0.80;;;2.40;99.90;;;;;;5084549;28;20372;-64
2022/12/08 05:23:29;;;;;;;3.53;0.80;;;1.80;99.90;;;;;;5089792;28;20032;-65
2022/12/08 05:25:55;;;;;;;1.08;0.60;;;1.70;99.90;;;;;;5086147;28;20077;-65
2022/12/08 05:28:21;;;;;;;1.40;0.77;;;2.30;99.90;;;;;;5090412;28;20042;-66
2022/12/08 05:30:46;;;;;;;3.08;0.90;;;2.20;99.90;;;;;;5078168;28;20437;-67
2022/12/08 05:33:12;;;;;;;1.25;0.60;;;1.70;99.90;;;;;;5099674;28;20036;-65
2022/12/08 05:35:38;;;;;;;1.40;0.60;;;2.30;99.90;;;;;;5087964;28;20086;-64
2022/12/08 05:38:04;;;;;;;2.50;0.40;;;2.30;99.90;;;;;;5086342;28;20051;-64
2022/12/08 05:40:30;;;;;;;1.23;0.50;;;1.80;99.90;;;;;;5084424;28;20044;-65
2022/12/08 05:42:55;;;;;;;1.13;0.60;;;2.20;99.90;;;;;;5086255;28;20066;-64
2022/12/08 05:45:21;;;;;;;1.70;0.47;;;2.10;99.90;;;;;;5077329;28;20648;-66
2022/12/08 05:47:46;;;;;;;2.10;0.60;;;2.20;99.90;;;;;;5083923;28;20487;-65
2022/12/08 05:50:12;;;;;;;3.40;0.60;;;2.10;99.90;;;;;;5079352;28;20046;-63
2022/12/08 05:52:37;;;;;;;2.35;0.50;;;2.10;99.90;;;;;;5082186;28;20040;-68
2022/12/08 05:55:03;;;;;;;0.85;0.45;;;1.80;99.90;;;;;;5076402;28;20093;-64
2022/12/08 05:57:29;;;;;;;1.35;0.40;;;2.40;99.90;;;;;;5071697;28;20078;-65
2022/12/08 05:59:55;;;;;;;2.10;0.57;;;2.10;99.90;;;;;;5079587;28;20127;-64
2022/12/08 06:02:21;;;;;;;2.05;0.40;;;2.30;99.90;;;;;;5080696;28;21946;-65
2022/12/08 06:04:47;;;;;;;0.73;0.40;;;2.40;99.90;;;;;;5085541;28;20082;-66
2022/12/08 06:07:12;;;;;;;2.33;0.50;;;1.90;99.90;;;;;;5068871;28;20062;-66
2022/12/08 06:09:38;;;;;;;2.22;0.47;;;2.40;99.90;;;;;;5079687;28;20229;-66
2022/12/08 06:12:03;;;;;;;2.03;0.30;;;2.20;99.90;;;;;;5073229;28;20138;-66
2022/12/08 06:14:29;;;;;;;1.10;0.60;;;1.60;99.90;;;;;;5062885;28;20079;-67
2022/12/08 06:16:54;;;;;;;1.67;0.50;;;1.60;99.90;;;;;;5080537;28;20081;-67
2022/12/08 06:19:20;;;;;;;2.42;0.47;;;2.10;99.90;;;;;;5070756;28;20044;-67
2022/12/08 06:21:45;;;;;;;1.67;0.50;;;2.20;99.90;;;;;;5071277;28;20040;-67
2022/12/08 06:24:11;;;;;;;0.68;0.68;;;1.60;99.90;;;;;;5068894;28;20040;-68
2022/12/08 06:26:39;;;;;;;1.73;0.68;;;1.60;99.90;;;;;;5067483;28;20029;-66
2022/12/08 06:29:04;;;;;;;2.53;0.55;;;1.70;99.90;;;;;;5078551;28;20047;-66
2022/12/08 06:31:30;;;;;;;0.85;0.40;;;2.20;99.90;;;;;;5083255;28;20122;-66
2022/12/08 06:33:55;;;;;;;1.27;0.50;;;1.90;99.90;;;;;;5074014;28;20089;-66
2022/12/08 06:36:24;;;;;;;1.92;0.50;;;1.80;99.90;;;;;;5070788;28;20122;-64
2022/12/08 06:38:49;;;;;;;2.00;0.57;;;2.10;99.90;;;;;;5078238;28;20106;-65
2022/12/08 06:41:15;;;;;;;1.83;0.50;;;1.70;99.90;;;;;;5073657;28;20043;-64
2022/12/08 06:43:42;;;;;;;3.30;0.50;;;2.10;99.90;;;;;;5087082;28;20040;-67
2022/12/08 06:46:11;;;;;;;2.28;0.60;;;1.50;99.90;;;;;;5088287;28;20047;-65
2022/12/08 06:48:37;;;;;;;0.60;0.45;;;1.60;99.90;;;;;;5073123;28;20526;-65
2022/12/08 06:51:08;;;;;;;1.42;0.40;;;1.80;99.90;;;;;;5087624;28;20043;-65
2022/12/08 06:53:34;;;;;;;1.95;0.40;;;1.30;99.90;;;;;;5087753;28;20028;-65
2022/12/08 06:55:59;;;;;;;2.72;0.40;;;2.00;99.90;;;;;;5090042;28;20028;-66
2022/12/08 06:58:25;;;;;;;0.68;0.32;;;1.60;99.90;;;;;;5087838;28;20067;-64
2022/12/08 07:00:50;;;;;;;0.50;0.50;;;2.00;99.90;;;;;;5062059;28;20085;-65
2022/12/08 07:03:16;;;;;;;1.05;0.40;;;1.30;99.90;;;;;;5083025;28;20098;-67
2022/12/08 07:05:41;;;;;;;0.98;0.60;;;1.80;99.90;;;;;;5078791;28;20084;-67
2022/12/08 07:08:08;;;;;;;2.00;0.70;;;1.30;99.90;;;;;;5081611;28;20040;-66
2022/12/08 07:10:33;;;;;;;2.90;1.10;;;1.40;99.90;;;;;;5089585;28;20395;-65
2022/12/08 07:12:59;;;;;;;2.45;1.08;;;1.50;99.90;;;;;;5085252;28;20051;-65
2022/12/08 07:15:25;;;;;;;2.10;0.95;;;1.30;99.90;;;;;;5086003;28;20044;-65
2022/12/08 07:17:50;;;;;;;4.80;1.00;;;1.30;99.90;;;;;;5065560;28;20364;-65
2022/12/08 07:20:16;;;;;;;1.25;1.00;;;1.80;99.90;;;;;;5079783;28;20037;-67
2022/12/08 07:22:47;;;;;;;2.20;1.00;;;1.80;99.90;;;;;;5079405;28;20480;-65
2022/12/08 07:25:13;;;;;;;3.00;1.20;;;1.50;99.90;;;;;;5073702;28;20078;-63
2022/12/08 07:27:38;;;;;;;1.85;1.20;;;1.30;99.90;;;;;;5083943;28;20064;-63
2022/12/08 07:30:05;;;;;;;3.13;2.08;;;1.40;99.90;;;;;;5084107;28;20673;-64
2022/12/08 07:32:30;;;;;;;1.90;1.08;;;1.50;99.90;;;;;;5066912;28;20032;-64
2022/12/08 07:34:56;;;;;;;2.47;1.45;;;1.40;99.90;;;;;;5074513;28;20102;-65
2022/12/08 07:37:21;;;;;;;3.03;1.73;;;1.30;99.90;;;;;;5076259;28;20425;-65
2022/12/08 07:39:47;;;;;;;3.67;1.60;;;1.30;99.90;;;;;;5085523;28;20424;-63
2022/12/08 07:42:12;;;;;;;3.28;2.00;;;1.40;99.90;;;;;;5083231;28;20135;-64
2022/12/08 07:44:38;;;;;;;4.97;2.22;;;1.30;99.90;;;;;;5076930;28;20072;-64
2022/12/08 07:47:04;;;;;;;6.20;2.72;;;1.50;99.90;;;;;;5066482;28;20054;-66
2022/12/08 07:49:29;;;;;;;5.38;2.67;;;2.00;99.90;;;;;;5081936;28;20048;-64
2022/12/08 07:51:55;;;;;;;4.55;2.55;;;1.30;99.90;;;;;;5082882;28;20043;-65
2022/12/08 07:54:20;;;;;;;4.63;2.63;;;2.00;99.90;;;;;;5079341;28;20048;-65
2022/12/08 07:56:46;;;;;;;6.80;2.60;;;1.90;99.90;;;;;;5082959;28;20485;-64
2022/12/08 07:59:13;;;;;;;4.30;2.50;;;1.90;99.90;;;;;;5079445;28;20426;-64
2022/12/08 08:01:38;;;;;;;6.65;2.40;;;1.80;99.90;;;;;;5082764;28;20035;-64
2022/12/08 08:04:04;;;;;;;4.20;2.22;;;1.30;99.90;;;;;;5081712;28;20439;-64
2022/12/08 08:06:32;;;;;;;4.13;2.30;;;1.80;99.90;;;;;;5075738;28;20404;-64
2022/12/08 08:08:57;;;;;;;4.55;2.42;;;1.80;99.90;;;;;;5070899;28;20093;-64
2022/12/08 08:11:23;;;;;;;6.93;2.70;;;1.20;99.90;;;;;;5073881;28;20044;-66
2022/12/08 08:13:49;;;;;;;4.80;2.42;;;1.80;99.90;;;;;;5087201;28;20051;-64
2022/12/08 08:16:16;;;;;;;6.68;2.50;;;1.70;99.90;;;;;;5070918;28;20051;-64
2022/12/08 08:18:42;;;;;;;8.20;2.70;;;1.40;99.90;;;;;;5086118;28;20035;-63
2022/12/08 08:21:08;;;;;;;4.53;2.45;;;1.10;99.90;;;;;;5074625;28;20170;-64
2022/12/08 08:23:34;;;;;;;6.20;2.60;;;1.60;99.90;;;;;;5083858;28;20477;-63
2022/12/08 08:26:03;;;;;;;2.72;1.90;;;1.60;99.90;;;;;;5090395;28;20034;-65
2022/12/08 08:28:30;;;;;;;6.10;2.33;;;1.40;99.90;;;;;;5089254;28;20119;-63
2022/12/08 08:30:56;;;;;;;5.90;2.35;;;1.50;99.90;;;;;;5090052;28;20039;-63
2022/12/08 08:33:22;;;;;;;5.82;2.30;;;1.10;99.90;;;;;;5103024;28;20035;-64
2022/12/08 08:35:47;;;;;;;3.92;2.22;;;1.10;99.90;;;;;;5090490;28;20032;-64
2022/12/08 08:38:13;;;;;;;6.13;2.38;;;1.00;99.90;;;;;;5088313;28;20097;-64
2022/12/08 08:40:39;;;;;;;5.25;2.75;;;1.50;99.90;;;;;;5102138;28;20048;-65
2022/12/08 08:43:05;;;;;;;3.70;2.28;;;1.50;99.90;;;;;;5086992;28;20046;-64
2022/12/08 08:45:32;;;;;;;7.43;2.30;;;0.90;99.90;;;;;;5087670;28;20122;-65
2022/12/08 08:47:58;;;;;;;4.38;2.30;;;0.90;99.90;;;;;;5091977;28;20486;-63
2022/12/08 08:50:24;;;;;;;3.17;2.10;;;1.50;99.90;;;;;;5090295;28;20124;-64
2022/12/08 08:52:49;;;;;;;3.83;2.00;;;1.50;99.90;;;;;;5112499;28;20036;-64
2022/12/08 08:55:15;;;;;;;7.18;2.40;;;1.40;99.90;;;;;;5093012;28;20076;-63
2022/12/08 08:57:41;;;;;;;4.40;2.05;;;1.50;99.90;;;;;;5092569;28;20044;-64
2022/12/08 09:00:08;;;;;;;3.65;2.20;;;0.90;99.90;;;;;;5077591;28;21993;-63
2022/12/08 09:02:35;;;;;;;4.53;2.08;;;1.40;99.90;;;;;;5077433;28;20042;-63
2022/12/08 09:05:02;;;;;;;3.58;2.00;;;1.40;99.90;;;;;;5091504;28;20040;-64
2022/12/08 09:07:27;;;;;;;5.63;2.30;;;1.50;99.90;;;;;;5092299;28;20047;-63
2022/12/08 09:09:53;;;;;;;5.20;2.40;;;1.50;99.90;;;;;;5086575;28;20028;-64
2022/12/08 09:12:19;;;;;;;5.60;2.50;;;1.50;99.90;;;;;;5109167;28;20047;-66
2022/12/08 09:14:45;;;;;;;3.90;2.10;;;1.10;99.90;;;;;;5094388;28;20136;-63
2022/12/08 09:17:10;;;;;;;5.43;2.60;;;1.30;99.90;;;;;;5111350;28;20076;-63
2022/12/08 09:19:36;;;;;;;3.03;1.95;;;1.10;99.90;;;;;;5088037;28;20040;-64
2022/12/08 09:22:02;;;;;;;4.75;3.25;;;1.50;99.90;;;;;;5089795;28;20491;-64
2022/12/08 09:24:27;;;;;;;7.28;3.30;;;1.50;99.90;;;;;;5112974;28;20451;-63
2022/12/08 09:26:53;;;;;;;8.75;3.10;;;1.20;99.90;;;;;;5095326;28;20034;-64
2022/12/08 09:29:19;;;;;;;7.28;3.08;;;1.80;99.90;;;;;;5091351;28;20111;-64
2022/12/08 09:31:44;;;;;;;8.25;3.00;;;1.70;99.90;;;;;;5090694;28;20028;-63
2022/12/08 09:34:11;;;;;;;6.40;2.90;;;1.80;99.90;;;;;;5113067;28;20040;-64
2022/12/08 09:36:37;;;;;;;8.00;3.20;;;1.40;99.90;;;;;;5093761;28;20035;-63
2022/12/08 09:39:03;;;;;;;7.22;2.67;;;1.80;99.90;;;;;;5111821;28;20047;-63
2022/12/08 09:41:48;;;;;;;7.18;3.03;;;1.70;99.90;;;;;;5113368;28;20410;-64
2022/12/08 09:44:39;;;;;;;6.28;2.67;;;1.90;99.90;;;;;;5078309;28;20039;-63
2022/12/08 09:47:14;;;;;;;4.38;2.58;;;1.90;99.90;;;;;;5100637;28;20024;-64
2022/12/08 09:49:45;;;;;;;11.45;3.17;;;1.40;99.90;;;;;;5109403;28;20055;-63
2022/12/08 09:52:33;;;;;;;6.45;2.75;;;1.90;99.90;;;;;;5093921;28;20045;-63
2022/12/08 09:55:08;;;;;;;5.65;2.80;;;1.40;99.90;;;;;;5088768;28;20050;-64
2022/12/08 09:57:33;;;;;;;8.15;2.88;;;1.60;99.90;;;;;;5091305;28;20039;-63
2022/12/08 10:00:03;;;;;;;8.00;2.90;;;1.80;99.90;;;;;;5114461;28;20498;-63
2022/12/08 10:02:29;;;;;;;;;;;2.00;99.90;;;;;;5075442;28;20031;-63
2022/12/08 10:04:56;;;;;;;4.18;2.30;;;1.70;99.90;;;;;;5113251;28;19915;-63
2022/12/08 10:07:29;;;;;;;5.30;2.60;;;1.90;99.90;;;;;;5092837;28;20046;-62
2022/12/08 10:10:10;;;;;;;6.70;2.53;;;1.90;99.90;;;;;;5109267;28;20065;-64
2022/12/08 10:12:53;;;;;;;4.43;2.10;;;2.20;99.90;;;;;;5075470;28;20093;-64
2022/12/08 10:15:31;;;;;;;7.18;2.55;;;2.90;99.90;;;;;;5113565;28;20052;-63
2022/12/08 10:18:01;;;;;;;3.78;2.40;;;2.90;99.90;;;;;;5108585;28;20071;-64
2022/12/08 10:20:35;;;;;;;6.35;2.30;;;2.60;99.90;;;;;;5090594;28;20039;-64
2022/12/08 10:23:12;;;;;;;6.28;2.20;;;2.80;99.90;;;;;;5106872;28;20120;-65
2022/12/08 10:25:48;;;;;;;3.30;1.70;;;3.00;99.90;;;;;;5082557;28;20040;-63
2022/12/08 10:28:13;;;;;;;6.20;2.88;;;3.20;99.90;;;;;;5089002;28;20132;-64
2022/12/08 10:30:39;;;;;;;5.15;1.98;;;3.20;99.90;;;;;;5113964;28;20440;-64
2022/12/08 10:33:14;;;;;;;6.40;2.10;;;3.30;99.90;;;;;;5073858;28;20086;-63
2022/12/08 10:35:48;;;;;;;6.03;2.20;;;3.60;99.90;;;;;;5086932;28;20048;-64
2022/12/08 10:38:29;;;;;;;6.38;2.05;;;3.40;99.90;;;;;;5085416;28;20605;-64
2022/12/08 10:41:03;;;;;;;6.45;2.25;;;3.60;99.90;;;;;;5104728;28;20031;-66
2022/12/08 10:43:30;;;;;;;9.23;2.20;;;3.90;99.90;;;;;;5073612;28;20087;-64
2022/12/08 10:46:09;;;;;;;6.25;2.67;;;3.30;99.90;;;;;;5087228;28;20039;-63
2022/12/08 10:48:50;;;;;;;6.60;2.63;;;3.70;99.90;;;;;;5091072;28;20088;-64
2022/12/08 10:51:28;;;;;;;6.10;2.13;;;3.80;99.90;;;;;;5090271;28;20058;-63
2022/12/08 10:53:54;;;;;;;4.68;2.30;;;3.70;99.90;;;;;;5090195;28;20047;-63
2022/12/08 10:56:24;;;;;;;4.55;2.10;;;3.60;99.90;;;;;;5106372;28;20051;-64
2022/12/08 10:59:14;;;;;;;4.20;2.72;;;3.60;99.90;;;;;;5109322;28;20363;-63
2022/12/08 11:01:45;;;;;;;7.35;2.40;;;3.40;99.90;;;;;;5092646;28;20881;-66
2022/12/08 11:04:22;;;;;;;5.35;2.15;;;3.70;99.90;;;;;;5110408;28;20418;-62
2022/12/08 11:06:50;;;;;;;5.50;2.45;;;3.80;99.90;;;;;;5079100;28;20051;-62
2022/12/08 11:09:18;;;;;;;4.80;2.28;;;3.80;99.90;;;;;;5070620;28;20406;-65
2022/12/08 11:11:52;;;;;;;5.30;2.58;;;3.30;99.90;;;;;;5107445;28;20433;-63
2022/12/08 11:14:21;;;;;;;5.57;2.17;;;3.80;99.90;;;;;;5088635;28;20426;-66
2022/12/08 11:16:49;;;;;;;5.43;1.65;;;3.40;99.90;;;;;;5090850;28;20042;-63
2022/12/08 11:19:17;;;;;;;4.80;2.25;;;3.40;99.90;;;;;;5099421;28;20040;-64
2022/12/08 11:21:43;;;;;;;3.40;2.03;;;3.70;99.90;;;;;;5076336;28;20043;-64
2022/12/08 11:24:14;;;;;;;9.20;2.80;;;3.90;99.90;;;;;;5099855;28;20040;-63
2022/12/08 11:26:46;;;;;;;2.90;1.83;;;4.00;99.90;;;;;;5102538;28;20036;-65
2022/12/08 11:29:12;;;;;;;4.35;1.80;;;3.70;99.90;;;;;;5099636;28;20044;-64
2022/12/08 11:31:48;;;;;;;4.85;2.10;;;4.20;99.90;;;;;;5087174;28;20390;-63
2022/12/08 11:34:39;;;;;;;7.22;2.15;;;4.30;99.90;;;;;;5105214;28;20043;-66
2022/12/08 11:37:07;;;;;;;4.25;1.95;;;4.00;99.90;;;;;;5081451;28;20395;-66
2022/12/08 11:39:36;;;;;;;3.55;1.83;;;4.40;99.90;;;;;;5101337;28;20366;-64
2022/12/08 11:42:06;;;;;;;5.60;1.88;;;4.50;99.90;;;;;;5107351;28;20040;-64
2022/12/08 11:44:58;;;;;;;2.42;1.83;;;4.60;99.90;;;;;;5107344;28;20371;-64
2022/12/08 11:47:34;;;;;;;3.22;2.10;;;4.60;99.90;;;;;;5087164;28;20039;-65
2022/12/08 11:50:24;;;;;;;7.10;2.13;;;4.40;99.90;;;;;;5085826;28;20040;-64
2022/12/08 11:52:50;;;;;;;;;;;4.70;99.90;;;;;;5076887;28;20036;-64
2022/12/08 11:55:34;;;;;;;4.93;2.30;;;4.40;99.90;;;;;;5102788;28;19924;-64
2022/12/08 11:58:17;;;;;;;3.80;2.00;;;4.30;99.90;;;;;;5086907;28;20047;-63
2022/12/08 12:00:43;;;;;;;3.60;2.38;;;4.30;99.90;;;;;;5092585;28;20040;-63
2022/12/08 12:03:21;;;;;;;4.90;2.05;;;4.60;99.90;;;;;;5108894;28;20035;-64
2022/12/08 12:06:11;;;;;;;6.38;1.83;;;4.30;99.90;;;;;;5085545;28;20486;-64
2022/12/08 12:09:05;;;;;;;5.85;1.92;;;4.30;99.90;;;;;;5106414;28;20039;-63
2022/12/08 12:12:15;;;;;;;4.53;1.88;;;4.30;99.90;;;;;;5083610;28;20083;-63
2022/12/08 12:14:56;;;;;;;4.10;1.90;;;4.10;99.90;;;;;;5108972;28;20134;-63
2022/12/08 12:17:49;;;;;;;3.13;1.80;;;4.10;99.90;;;;;;5106117;28;20169;-64
2022/12/08 12:20:38;;;;;;;7.07;2.20;;;4.20;99.90;;;;;;5105182;28;20517;-63
2022/12/08 12:23:31;;;;;;;6.18;1.90;;;3.80;99.90;;;;;;5081547;28;20047;-64
2022/12/08 12:26:04;;;;;;;5.47;1.80;;;4.00;99.90;;;;;;5089348;28;20039;-65
2022/12/08 12:28:54;;;;;;;5.05;2.20;;;4.00;99.90;;;;;;5105285;28;20033;-64
2022/12/08 12:31:35;;;;;;;6.35;2.25;;;3.70;99.90;;;;;;5089650;28;20044;-65
2022/12/08 12:34:13;;;;;;;3.78;2.20;;;3.40;99.90;;;;;;5110990;28;20522;-64
2022/12/08 12:36:56;;;;;;;5.07;2.38;;;3.50;99.90;;;;;;5096455;28;20054;-65
2022/12/08 12:39:27;;;;;;;4.03;2.30;;;3.50;99.90;;;;;;5113580;28;20079;-64
2022/12/08 12:41:58;;;;;;;6.05;2.20;;;3.40;99.90;;;;;;5112485;28;20035;-65
2022/12/08 12:44:27;;;;;;;6.78;2.28;;;3.30;99.90;;;;;;5115177;28;20417;-64
2022/12/08 12:47:00;;;;;;;8.57;2.50;;;3.20;99.90;;;;;;5115334;28;20040;-64
2022/12/08 12:50:02;;;;;;;6.10;2.50;;;3.20;99.90;;;;;;5100774;28;20507;-64
2022/12/08 12:52:31;;;;;;;4.22;2.40;;;3.20;99.90;;;;;;5089688;28;20051;-64
2022/12/08 12:54:56;;;;;;;6.78;2.42;;;3.00;99.90;;;;;;5089847;28;20040;-65
2022/12/08 12:57:24;;;;;;;6.88;2.88;;;3.30;99.90;;;;;;5102972;28;20165;-64
2022/12/08 12:59:52;;;;;;;7.55;3.00;;;3.00;99.90;;;;;;5092289;28;20425;-63
2022/12/08 13:02:34;;;;;;;13.68;3.00;;;3.40;99.90;;;;;;5081784;28;20040;-63
2022/12/08 13:05:09;;;;;;;5.43;2.63;;;3.40;99.90;;;;;;5088668;28;20054;-64
2022/12/08 13:07:56;;;;;;;6.03;2.60;;;3.30;99.90;;;;;;5092807;28;20670;-63
2022/12/08 13:10:28;;;;;;;4.75;2.63;;;3.30;99.90;;;;;;5114193;28;20067;-64
2022/12/08 13:13:16;;;;;;;4.68;2.75;;;3.40;99.90;;;;;;5093200;28;20055;-64
2022/12/08 13:16:08;;;;;;;6.47;3.03;;;3.60;99.90;;;;;;5097560;28;20048;-63
2022/12/08 13:18:33;;;;;;;6.40;2.75;;;3.60;99.90;;;;;;5087841;28;20138;-65
2022/12/08 13:21:08;;;;;;;5.55;2.50;;;3.70;99.90;;;;;;5074602;28;20035;-65